La Rue, Ohio
Current Conditions -  °F | °C
As of 8:53 AM on Friday 28 Nov 2014 (Local Time) from KMNN Reporting Station
Overcast Overcast  
Wind Chill: 18°   Ceiling: 3600
Heat Index: 24°   Visibility: 7mi
Dew Point: 18°   Wind: 5mph
Humidity: 77%   Direction: 270°W
Pressure: 30.36"   Gusts: NA
Location:  40.58°N, 83.38°W
Report Text: KMNN 281353Z AUTO 27004KT 7SM OVC036 M04/M08 A3036 RMK AO2 SLP295 T10441078 TSNO
Loading
Personal Weather Stations






























Interactive Weather Map New forecast layout! Learn more

10-Day Weather Forecast

Advertisements
Track Severe Weather on mobile